Other Surface Observations
Issued by NWS Missoula, MT

Home | Current Version | Previous Version | Text Only | Print | Product List | Glossary On
Versions: 1 2 3 4 5 6 7 8 9 10 11 12 13 14 15 16 17 18 19 20 21 22 23 24 25 26 27 28 29 30 31 32 33 34 35 36 37 38 39 40 41 42 43 44 45 46 47 48 49 50
000
SXUS55 KMSO 032243
OSOMSO
MONTANA AWOS SUMMARY
NATIONAL WEATHER SERVICE MISSOULA MT
443 PM MDT FRI JUL 3 2015

Montana AWOS Reports

LAUREL      |K6S8 032235Z AUTO 05004KT 25SM 33/09 A2991 RMK AO1 T03280089
TWIN BRIDGES|K7S1 032235Z AUTO 14009KT 40SM 33/04 A2997 RMK AO1 T03280044
ROUNDUP     |KRPX 032235Z AUTO 00000KT 40SM 33/08 A2983 RMK AO1 T03330083




USA.gov is the U.S. government's official web portal to all federal, state and local government web resources and services.